Time;durP1;ratioP1;P1;durP2;ratioP2;P2;SDS_P1;SDS_P2;PMS_P1;PMS_P2;Temp;Humidity;BMP_temperature;BMP_pressure;BME280_temperature;BME280_humidity;BME280_pressure;Samples;Min_cycle;Max_cycle;Signal;HPM_P1;HPM_P2
2024/01/16 00:00:37;;;;;;;8.85;6.07;;;1.00;51.40;;;;;;4971598;28;20038;-80
2024/01/16 00:03:04;;;;;;;8.73;5.68;;;1.00;51.50;;;;;;4990180;28;20031;-81
2024/01/16 00:05:30;;;;;;;8.38;5.93;;;1.00;51.50;;;;;;4976604;28;20031;-85
2024/01/16 00:07:59;;;;;;;7.55;5.30;;;1.00;51.50;;;;;;4977802;28;20026;-84
2024/01/16 00:10:26;;;;;;;7.78;5.88;;;0.90;51.30;;;;;;4988281;28;20061;-91
2024/01/16 00:12:52;;;;;;;7.63;5.45;;;0.90;51.30;;;;;;4977442;28;20035;-89
2024/01/16 00:15:19;;;;;;;7.65;4.88;;;0.90;51.30;;;;;;4977225;28;20489;-90
2024/01/16 00:17:45;;;;;;;8.05;5.28;;;0.90;51.30;;;;;;4982908;28;20034;-89
2024/01/16 00:20:11;;;;;;;9.30;5.70;;;0.90;51.30;;;;;;4980362;28;20062;-90
2024/01/16 00:22:37;;;;;;;8.07;5.75;;;0.90;51.30;;;;;;4995884;28;20156;-89
2024/01/16 00:25:04;;;;;;;8.73;5.88;;;0.80;51.20;;;;;;4978567;28;20313;-89
2024/01/16 00:27:32;;;;;;;8.52;5.57;;;0.80;51.20;;;;;;4964429;28;20129;-88
2024/01/16 00:29:58;;;;;;;7.35;5.20;;;0.80;51.20;;;;;;4976578;28;20452;-82
2024/01/16 00:32:24;;;;;;;6.13;5.10;;;0.80;51.20;;;;;;4974282;28;20026;-80
2024/01/16 00:34:50;;;;;;;9.90;6.20;;;0.70;51.00;;;;;;4974446;28;20506;-80
2024/01/16 00:37:16;;;;;;;7.28;5.18;;;0.70;51.00;;;;;;4961191;28;20038;-84
2024/01/16 00:39:42;;;;;;;8.55;5.10;;;0.80;51.20;;;;;;4976756;28;20022;-85
2024/01/16 00:42:08;;;;;;;8.00;4.75;;;0.80;51.20;;;;;;4975668;28;20667;-84
2024/01/16 00:44:36;;;;;;;9.77;5.32;;;0.80;51.20;;;;;;4979638;28;20381;-87
2024/01/16 00:47:02;;;;;;;6.93;5.32;;;0.80;51.20;;;;;;4981726;28;20077;-87
2024/01/16 00:49:29;;;;;;;8.38;5.15;;;0.70;51.00;;;;;;4983039;28;20026;-88
2024/01/16 00:51:56;;;;;;;7.90;4.85;;;0.80;51.20;;;;;;4973466;28;20357;-83
2024/01/16 00:54:22;;;;;;;8.65;4.85;;;0.70;51.00;;;;;;4993411;28;20038;-81
2024/01/16 00:56:48;;;;;;;7.25;5.60;;;0.80;51.20;;;;;;4993659;28;20183;-85
2024/01/16 00:59:14;;;;;;;6.00;4.70;;;0.80;51.10;;;;;;4980676;28;20121;-84
2024/01/16 01:01:40;;;;;;;6.70;5.13;;;0.80;51.10;;;;;;4965479;28;20315;-83
2024/01/16 01:04:06;;;;;;;6.97;4.93;;;0.80;51.10;;;;;;4979836;28;20050;-84
2024/01/16 01:06:32;;;;;;;7.00;4.78;;;0.80;51.00;;;;;;4964551;28;20034;-81
2024/01/16 01:08:59;;;;;;;6.90;4.53;;;0.80;51.00;;;;;;4982459;28;20041;-86
2024/01/16 01:11:25;;;;;;;6.82;4.47;;;0.80;51.00;;;;;;4977773;28;20023;-86
2024/01/16 01:13:51;;;;;;;8.07;4.80;;;0.80;51.00;;;;;;4982243;28;20140;-87
2024/01/16 01:16:17;;;;;;;9.50;4.80;;;0.80;51.00;;;;;;4984069;28;20022;-87
2024/01/16 01:18:43;;;;;;;6.57;4.80;;;0.80;51.00;;;;;;4980597;28;20031;-88
2024/01/16 01:21:10;;;;;;;7.00;4.65;;;0.80;51.00;;;;;;4983109;28;20645;-90
2024/01/16 01:23:36;;;;;;;4.80;4.05;;;0.80;50.90;;;;;;4984577;28;20073;-89
2024/01/16 01:26:03;;;;;;;6.20;4.90;;;0.80;51.00;;;;;;4981383;28;20054;-89
2024/01/16 01:28:29;;;;;;;5.15;4.32;;;0.90;51.10;;;;;;4979524;28;20109;-89
2024/01/16 01:30:55;;;;;;;6.05;4.65;;;0.80;50.90;;;;;;4998123;28;20137;-88
2024/01/16 01:33:21;;;;;;;6.00;4.43;;;0.80;50.80;;;;;;4995828;28;20034;-86
2024/01/16 01:35:47;;;;;;;6.15;4.00;;;0.80;50.80;;;;;;4977429;28;20117;-87
2024/01/16 01:38:13;;;;;;;6.75;4.55;;;0.80;50.80;;;;;;4968845;28;20105;-86
2024/01/16 01:40:39;;;;;;;5.72;3.97;;;0.90;51.00;;;;;;4980365;28;20026;-87
2024/01/16 01:43:21;;;;;;;7.63;4.88;;;0.90;51.00;;;;;;4981681;28;20117;-88
2024/01/16 01:46:10;;;;;;;5.63;3.67;;;0.90;51.50;;;;;;4982544;28;20081;-87
2024/01/16 01:48:41;;;;;;;7.40;4.10;;;0.90;50.90;;;;;;4966477;28;20039;-87
2024/01/16 01:51:19;;;;;;;8.18;5.45;;;0.90;50.90;;;;;;4979999;28;20037;-87
2024/01/16 01:53:48;;;;;;;7.40;4.30;;;0.90;50.90;;;;;;4984088;28;20030;-88
2024/01/16 01:56:17;;;;;;;7.35;4.70;;;0.90;50.90;;;;;;4982854;28;20038;-86
2024/01/16 01:58:53;;;;;;;7.85;4.40;;;0.90;50.90;;;;;;4980899;28;20503;-86
2024/01/16 02:01:21;;;;;;;6.60;4.55;;;0.90;50.90;;;;;;4991231;28;20026;-88
2024/01/16 02:03:54;;;;;;;5.85;4.60;;;0.90;50.80;;;;;;4980989;28;20139;-88
2024/01/16 02:06:20;;;;;;;7.22;4.63;;;0.90;50.80;;;;;;4962394;28;20057;-88
2024/01/16 02:08:47;;;;;;;8.18;4.68;;;0.90;50.70;;;;;;4997487;28;20066;-86
2024/01/16 02:11:14;;;;;;;8.13;4.82;;;1.00;50.90;;;;;;4979936;28;20554;-85
2024/01/16 02:13:41;;;;;;;5.75;4.15;;;1.00;50.90;;;;;;4980033;28;20441;-86
2024/01/16 02:16:26;;;;;;;6.68;4.10;;;1.00;50.90;;;;;;4992024;28;20220;-88
2024/01/16 02:18:52;;;;;;;7.13;4.47;;;1.00;50.80;;;;;;4979076;28;20034;-87
2024/01/16 02:21:22;;;;;;;6.65;4.10;;;1.00;50.80;;;;;;4991967;28;20110;-82
2024/01/16 02:23:48;;;;;;;7.13;5.30;;;1.10;50.90;;;;;;4978985;28;20035;-83
2024/01/16 02:26:15;;;;;;;5.85;4.70;;;1.10;50.90;;;;;;4979609;28;20288;-82
2024/01/16 02:28:42;;;;;;;7.10;4.72;;;1.10;50.90;;;;;;4975764;28;20030;-82
2024/01/16 02:31:08;;;;;;;9.02;5.07;;;1.10;50.80;;;;;;4977709;28;20038;-83
2024/01/16 02:33:34;;;;;;;6.43;4.65;;;1.10;50.80;;;;;;4979595;28;20548;-84
2024/01/16 02:36:00;;;;;;;5.53;4.40;;;1.20;51.00;;;;;;4981246;28;20022;-84
2024/01/16 02:38:26;;;;;;;5.85;4.28;;;1.10;50.80;;;;;;4995208;28;20027;-83
2024/01/16 02:40:52;;;;;;;6.65;4.68;;;1.20;51.00;;;;;;4975088;28;20766;-83
2024/01/16 02:43:18;;;;;;;7.68;4.47;;;1.20;51.00;;;;;;4980469;28;20384;-85
2024/01/16 02:45:44;;;;;;;5.95;4.10;;;1.20;50.90;;;;;;4995128;28;20080;-85
2024/01/16 02:48:11;;;;;;;7.78;4.95;;;1.20;50.90;;;;;;4985041;28;20405;-86
2024/01/16 02:50:38;;;;;;;5.70;4.35;;;1.20;50.90;;;;;;4994519;28;20057;-84
2024/01/16 02:53:06;;;;;;;6.32;4.10;;;1.30;51.10;;;;;;4984882;28;20446;-83
2024/01/16 02:55:32;;;;;;;7.15;5.03;;;1.20;50.90;;;;;;4982067;28;20042;-84
2024/01/16 02:57:58;;;;;;;6.72;4.97;;;1.30;51.00;;;;;;5001695;28;20085;-84
2024/01/16 03:00:24;;;;;;;6.18;4.10;;;1.30;51.00;;;;;;4998193;28;20089;-84
2024/01/16 03:02:50;;;;;;;5.45;4.13;;;1.30;51.00;;;;;;4985875;28;20027;-84
2024/01/16 03:05:15;;;;;;;6.53;4.47;;;1.30;50.90;;;;;;4985696;28;20023;-84
2024/01/16 03:07:41;;;;;;;7.57;4.45;;;1.30;50.90;;;;;;4987362;28;20034;-87
2024/01/16 03:10:08;;;;;;;7.43;4.82;;;1.30;50.90;;;;;;4985552;28;20477;-83
2024/01/16 03:12:33;;;;;;;5.47;4.28;;;1.30;50.90;;;;;;4981678;28;20113;-83
2024/01/16 03:15:00;;;;;;;5.70;4.20;;;1.40;51.10;;;;;;4988645;28;20106;-83
2024/01/16 03:17:25;;;;;;;6.47;4.55;;;1.40;51.10;;;;;;4978487;28;20072;-84
2024/01/16 03:19:51;;;;;;;8.38;4.63;;;1.30;50.90;;;;;;5003800;28;20062;-86
2024/01/16 03:22:18;;;;;;;5.47;4.07;;;1.40;51.10;;;;;;5004500;28;20049;-83
2024/01/16 03:24:44;;;;;;;6.95;4.60;;;1.40;51.00;;;;;;5007146;28;20145;-85
2024/01/16 03:27:10;;;;;;;5.35;4.07;;;1.40;51.00;;;;;;5007799;28;20424;-85
2024/01/16 03:29:36;;;;;;;7.35;4.57;;;1.40;51.10;;;;;;5008065;28;20031;-85
2024/01/16 03:32:02;;;;;;;5.90;4.45;;;1.50;51.20;;;;;;5005716;28;20050;-88
2024/01/16 03:34:31;;;;;;;5.82;4.38;;;1.40;51.00;;;;;;5002423;28;20200;-83
2024/01/16 03:36:57;;;;;;;6.13;4.78;;;1.50;51.20;;;;;;5005457;28;20006;-87
2024/01/16 03:39:23;;;;;;;7.50;4.30;;;1.50;51.10;;;;;;5004470;28;20018;-86
2024/01/16 03:41:49;;;;;;;6.20;4.50;;;1.50;51.10;;;;;;5005092;28;20061;-85
2024/01/16 03:44:15;;;;;;;6.20;4.40;;;1.50;51.10;;;;;;4984920;28;20034;-86
2024/01/16 03:46:41;;;;;;;7.50;4.25;;;1.50;51.10;;;;;;4985150;28;20031;-83
2024/01/16 03:49:07;;;;;;;6.55;4.50;;;1.50;51.00;;;;;;4985988;28;20034;-82
2024/01/16 03:51:34;;;;;;;6.53;4.60;;;1.50;51.00;;;;;;4983708;28;20026;-82
2024/01/16 03:53:59;;;;;;;6.65;4.82;;;1.50;51.00;;;;;;4985164;28;20041;-82
2024/01/16 03:56:25;;;;;;;5.85;4.28;;;1.50;51.00;;;;;;4984517;28;20030;-83
2024/01/16 03:58:51;;;;;;;8.43;5.10;;;1.50;51.00;;;;;;4985980;28;20432;-83
2024/01/16 04:01:17;;;;;;;8.32;4.70;;;1.60;51.20;;;;;;4983122;28;20030;-81
2024/01/16 04:03:43;;;;;;;6.38;4.60;;;1.60;51.20;;;;;;4984165;28;20076;-81
2024/01/16 04:06:17;;;;;;;6.95;4.85;;;1.60;51.20;;;;;;4985515;28;20094;-82
2024/01/16 04:08:43;;;;;;;5.70;4.72;;;1.60;51.20;;;;;;4983463;28;20042;-83
2024/01/16 04:11:15;;;;;;;8.10;4.97;;;1.60;51.20;;;;;;4983848;28;20326;-83
2024/01/16 04:13:42;;;;;;;6.85;4.47;;;1.60;51.20;;;;;;4982922;28;20111;-84
2024/01/16 04:16:08;;;;;;;7.93;4.65;;;1.60;51.20;;;;;;4981751;28;20096;-82
2024/01/16 04:18:38;;;;;;;6.13;5.15;;;1.60;51.20;;;;;;4982837;28;20095;-83
2024/01/16 04:21:04;;;;;;;8.05;4.30;;;1.60;51.20;;;;;;4989990;28;20110;-84
2024/01/16 04:23:30;;;;;;;5.78;4.40;;;1.60;51.20;;;;;;4977523;28;20188;-84
2024/01/16 04:25:56;;;;;;;6.03;4.35;;;1.70;51.30;;;;;;4976473;28;20018;-83
2024/01/16 04:28:22;;;;;;;5.60;4.45;;;1.70;51.30;;;;;;4978490;28;20034;-83
2024/01/16 04:30:49;;;;;;;5.80;4.13;;;1.70;51.30;;;;;;4978993;28;20349;-85
2024/01/16 04:33:15;;;;;;;6.22;4.18;;;1.70;51.40;;;;;;4998253;28;20417;-86
2024/01/16 04:35:41;;;;;;;8.30;4.85;;;1.70;51.30;;;;;;4984706;28;20039;-84
2024/01/16 04:38:07;;;;;;;7.68;4.50;;;1.70;51.30;;;;;;4980835;28;20034;-84
2024/01/16 04:40:33;;;;;;;5.57;4.88;;;1.70;51.30;;;;;;4977341;28;20042;-82
2024/01/16 04:43:00;;;;;;;5.47;4.25;;;1.70;51.30;;;;;;4979469;28;20105;-84
2024/01/16 04:45:26;;;;;;;7.18;5.00;;;1.80;51.50;;;;;;4979950;28;20084;-86
2024/01/16 04:47:52;;;;;;;6.15;4.53;;;1.80;51.50;;;;;;4978069;28;20132;-85
2024/01/16 04:50:18;;;;;;;7.78;4.80;;;1.80;51.40;;;;;;4966161;28;20200;-86
2024/01/16 04:52:45;;;;;;;7.10;5.60;;;1.80;51.40;;;;;;4995002;28;20042;-85
2024/01/16 04:55:11;;;;;;;6.70;4.38;;;1.80;51.40;;;;;;4985226;28;20049;-85
2024/01/16 04:57:37;;;;;;;7.28;5.07;;;1.80;51.40;;;;;;4985151;28;20026;-86
2024/01/16 05:00:06;;;;;;;5.93;4.43;;;1.80;51.40;;;;;;4983427;28;20037;-86
2024/01/16 05:02:34;;;;;;;5.82;3.90;;;1.90;51.60;;;;;;4978310;28;20520;-84
2024/01/16 05:05:00;;;;;;;5.35;3.90;;;1.90;51.60;;;;;;4981292;28;20478;-85
2024/01/16 05:07:26;;;;;;;6.80;4.15;;;1.90;51.60;;;;;;4996155;28;20372;-84
2024/01/16 05:09:53;;;;;;;5.78;4.55;;;1.90;51.60;;;;;;4967287;28;20042;-83
2024/01/16 05:12:19;;;;;;;6.15;4.28;;;1.90;51.60;;;;;;4998675;28;20038;-82
2024/01/16 05:14:45;;;;;;;6.75;4.50;;;1.90;51.60;;;;;;4994835;28;20531;-83
2024/01/16 05:17:11;;;;;;;6.85;4.80;;;1.90;51.60;;;;;;4984391;28;20445;-83
2024/01/16 05:19:37;;;;;;;7.40;4.70;;;1.90;51.50;;;;;;4984345;28;20030;-82
2024/01/16 05:22:03;;;;;;;6.65;4.28;;;1.90;51.50;;;;;;4979293;28;20035;-83
2024/01/16 05:24:29;;;;;;;7.28;4.40;;;1.90;51.60;;;;;;4999251;28;20085;-82
2024/01/16 05:26:55;;;;;;;7.35;4.43;;;1.90;51.50;;;;;;4994452;28;20450;-88
2024/01/16 05:29:21;;;;;;;4.95;3.97;;;1.90;52.10;;;;;;4982697;28;20209;-87
2024/01/16 05:31:49;;;;;;;7.57;4.00;;;1.90;51.50;;;;;;4981582;28;20081;-87
2024/01/16 05:34:16;;;;;;;4.78;4.10;;;1.90;51.50;;;;;;4999452;28;20050;-87
2024/01/16 05:36:43;;;;;;;7.15;4.50;;;1.90;51.50;;;;;;4996179;28;20258;-85
2024/01/16 05:39:10;;;;;;;5.55;4.05;;;1.90;51.50;;;;;;4979881;28;20085;-85
2024/01/16 05:41:37;;;;;;;4.85;3.67;;;1.90;51.60;;;;;;4978003;28;20037;-86
2024/01/16 05:44:04;;;;;;;6.47;4.30;;;2.00;51.70;;;;;;4985316;28;20056;-86
2024/01/16 05:46:32;;;;;;;5.60;3.83;;;1.90;51.50;;;;;;4982463;28;20157;-86
2024/01/16 05:48:58;;;;;;;6.43;4.18;;;2.00;51.70;;;;;;4994951;28;20197;-85
2024/01/16 05:51:27;;;;;;;7.82;4.32;;;2.00;51.70;;;;;;4982514;28;20125;-86
2024/01/16 05:53:53;;;;;;;7.15;3.80;;;2.00;51.70;;;;;;4984085;28;20038;-85
2024/01/16 05:56:19;;;;;;;5.00;4.18;;;2.00;51.70;;;;;;4979715;28;20101;-83
2024/01/16 05:58:45;;;;;;;4.60;3.50;;;2.00;51.70;;;;;;4991498;28;20018;-83
2024/01/16 06:01:13;;;;;;;8.23;4.07;;;2.00;51.70;;;;;;4979016;28;20033;-86
2024/01/16 06:03:39;;;;;;;5.60;3.83;;;2.00;51.70;;;;;;4990908;28;20108;-85
2024/01/16 06:06:07;;;;;;;5.93;3.90;;;2.00;51.70;;;;;;4981129;28;20259;-86
2024/01/16 06:08:34;;;;;;;7.65;3.90;;;2.00;51.70;;;;;;4973865;28;20038;-87
2024/01/16 06:11:00;;;;;;;5.55;4.13;;;2.00;51.70;;;;;;4975824;28;20481;-86
2024/01/16 06:13:26;;;;;;;6.72;4.13;;;2.00;51.70;;;;;;4974539;28;20208;-86
2024/01/16 06:15:52;;;;;;;4.90;3.78;;;2.00;51.70;;;;;;4976172;28;20512;-84
2024/01/16 06:18:17;;;;;;;5.32;3.78;;;2.00;51.70;;;;;;4983980;28;20023;-85
2024/01/16 06:20:43;;;;;;;5.45;3.70;;;2.00;51.70;;;;;;4975319;28;20121;-84
2024/01/16 06:23:10;;;;;;;5.18;3.80;;;2.10;51.90;;;;;;4978551;28;20030;-84
2024/01/16 06:25:36;;;;;;;6.68;4.00;;;2.10;51.90;;;;;;4977135;28;20635;-82
2024/01/16 06:28:03;;;;;;;6.13;3.95;;;2.00;51.70;;;;;;4975562;28;20190;-83
2024/01/16 06:30:29;;;;;;;5.70;3.95;;;2.00;51.70;;;;;;4979227;28;20049;-83
2024/01/16 06:32:55;;;;;;;4.85;3.53;;;2.00;51.70;;;;;;4973891;28;20410;-82
2024/01/16 06:35:23;;;;;;;5.82;4.22;;;2.10;51.90;;;;;;4982177;28;20149;-84
2024/01/16 06:37:49;;;;;;;3.75;3.40;;;2.10;51.90;;;;;;4979873;28;20220;-83
2024/01/16 06:40:15;;;;;;;5.18;3.97;;;2.10;51.80;;;;;;4985951;28;20031;-84
2024/01/16 06:42:41;;;;;;;4.53;3.50;;;2.10;51.80;;;;;;4960838;28;20041;-84
2024/01/16 06:45:08;;;;;;;5.90;4.28;;;2.10;51.80;;;;;;4981117;28;20030;-87
2024/01/16 06:47:34;;;;;;;5.95;3.83;;;2.10;51.80;;;;;;4974829;28;20518;-83
2024/01/16 06:50:00;;;;;;;4.63;3.50;;;2.10;51.80;;;;;;4974804;28;20112;-84
2024/01/16 06:52:26;;;;;;;8.38;4.25;;;2.20;52.00;;;;;;4962134;28;20645;-81
2024/01/16 06:54:53;;;;;;;6.20;3.78;;;2.20;52.10;;;;;;4969140;28;20497;-81
2024/01/16 06:57:19;;;;;;;7.45;3.92;;;2.20;52.20;;;;;;4991283;28;20133;-80
2024/01/16 06:59:45;;;;;;;5.68;4.18;;;2.30;52.70;;;;;;4974772;28;20514;-80
2024/01/16 07:02:11;;;;;;;3.85;3.45;;;2.30;52.80;;;;;;4978090;28;20033;-79
2024/01/16 07:04:37;;;;;;;7.63;4.82;;;2.40;53.70;;;;;;5000091;28;20026;-80
2024/01/16 07:07:03;;;;;;;6.35;4.25;;;2.50;53.60;;;;;;4984284;28;20274;-81
2024/01/16 07:09:29;;;;;;;6.40;4.65;;;2.60;53.90;;;;;;4985629;28;20073;-84
2024/01/16 07:11:58;;;;;;;95.70;22.17;;;2.70;54.20;;;;;;4979487;28;20157;-82
2024/01/16 07:14:25;;;;;;;64.57;19.08;;;2.80;54.70;;;;;;4981971;28;20078;-81
2024/01/16 07:16:51;;;;;;;66.20;16.77;;;2.90;55.10;;;;;;4971494;28;20052;-79
2024/01/16 07:19:17;;;;;;;64.78;16.20;;;3.00;55.40;;;;;;4987711;28;20050;-83
2024/01/16 07:21:47;;;;;;;48.85;14.73;;;3.00;55.50;;;;;;4977249;28;20042;-81
2024/01/16 07:24:14;;;;;;;44.53;13.73;;;3.00;55.70;;;;;;4990049;28;20446;-82
2024/01/16 07:26:41;;;;;;;43.00;13.25;;;3.10;56.00;;;;;;4990595;28;20035;-82
2024/01/16 07:29:07;;;;;;;37.30;11.65;;;3.00;56.00;;;;;;4972818;28;20484;-82
2024/01/16 07:31:34;;;;;;;35.42;10.32;;;3.00;56.20;;;;;;4970736;28;20045;-81
2024/01/16 07:34:00;;;;;;;31.73;10.68;;;3.00;56.30;;;;;;4970793;28;20208;-82
2024/01/16 07:36:26;;;;;;;32.53;9.85;;;3.00;56.40;;;;;;4973525;28;20062;-83
2024/01/16 07:38:52;;;;;;;23.83;9.48;;;2.90;56.30;;;;;;4992777;28;20105;-82
2024/01/16 07:41:18;;;;;;;24.20;8.15;;;2.90;56.40;;;;;;4971547;28;20289;-80
2024/01/16 07:43:46;;;;;;;20.23;7.68;;;2.90;56.40;;;;;;4971499;28;20027;-82
2024/01/16 07:46:12;;;;;;;22.92;8.82;;;2.90;56.40;;;;;;4982118;28;20045;-82
2024/01/16 07:48:38;;;;;;;17.40;6.90;;;2.80;56.30;;;;;;4961814;28;20703;-82
2024/01/16 07:51:04;;;;;;;19.98;8.32;;;2.80;56.30;;;;;;4987498;28;20403;-86
2024/01/16 07:53:30;;;;;;;18.40;7.35;;;2.70;56.20;;;;;;4970953;28;20042;-80
2024/01/16 07:55:56;;;;;;;16.17;7.55;;;2.70;56.20;;;;;;5006956;28;20061;-82
2024/01/16 07:58:22;;;;;;;15.88;6.95;;;2.60;56.00;;;;;;4984867;28;20026;-82
2024/01/16 08:00:49;;;;;;;13.95;6.30;;;2.60;56.00;;;;;;4990386;28;20065;-81
2024/01/16 08:03:15;;;;;;;17.83;6.88;;;2.50;55.80;;;;;;4976339;28;20071;-83
2024/01/16 08:05:41;;;;;;;10.45;5.68;;;2.50;55.80;;;;;;4977927;28;20122;-81
2024/01/16 08:08:11;;;;;;;16.20;6.82;;;2.40;55.70;;;;;;4972191;28;20066;-83
2024/01/16 08:10:38;;;;;;;14.93;6.30;;;2.40;55.70;;;;;;4974094;28;20045;-83
2024/01/16 08:13:04;;;;;;;15.73;6.07;;;2.40;55.70;;;;;;4972559;28;20037;-82
2024/01/16 08:15:31;;;;;;;9.23;5.78;;;2.30;55.50;;;;;;4973615;28;20034;-83
2024/01/16 08:17:57;;;;;;;8.60;4.80;;;2.30;55.50;;;;;;4974124;28;20116;-83
2024/01/16 08:20:23;;;;;;;10.90;5.32;;;2.20;55.40;;;;;;4975968;28;20563;-83
2024/01/16 08:22:50;;;;;;;10.30;5.70;;;2.20;55.40;;;;;;4976755;28;20425;-81
2024/01/16 08:25:16;;;;;;;10.30;5.93;;;2.20;55.40;;;;;;4974397;28;20149;-81
2024/01/16 08:27:43;;;;;;;9.65;5.55;;;2.10;55.20;;;;;;4976049;28;20026;-82
2024/01/16 08:30:12;;;;;;;7.13;5.15;;;2.10;55.20;;;;;;4975284;28;20348;-80
2024/01/16 08:32:38;;;;;;;9.20;5.97;;;2.00;55.10;;;;;;4954511;28;20336;-81
2024/01/16 08:35:05;;;;;;;7.93;5.47;;;2.00;55.10;;;;;;4969432;28;20065;-84
2024/01/16 08:37:34;;;;;;;9.18;5.25;;;2.00;55.10;;;;;;4968646;28;20062;-81
2024/01/16 08:40:03;;;;;;;8.23;5.28;;;2.00;55.10;;;;;;4976770;28;20141;-82
2024/01/16 08:42:29;;;;;;;8.52;5.63;;;2.00;55.10;;;;;;4972626;28;20762;-80
2024/01/16 08:44:55;;;;;;;6.00;5.40;;;1.90;54.90;;;;;;4969260;28;20501;-81
2024/01/16 08:47:22;;;;;;;8.30;5.78;;;1.90;54.90;;;;;;4967207;28;20058;-81
2024/01/16 08:49:48;;;;;;;6.75;5.38;;;1.90;55.00;;;;;;4970472;28;20126;-83
2024/01/16 08:52:15;;;;;;;9.68;5.35;;;1.90;54.90;;;;;;4969900;28;20137;-83
2024/01/16 08:54:41;;;;;;;7.18;5.30;;;1.90;55.00;;;;;;4970872;28;20142;-83
2024/01/16 08:57:10;;;;;;;6.30;5.07;;;1.80;54.70;;;;;;4993331;28;20443;-84
2024/01/16 08:59:36;;;;;;;9.05;5.93;;;1.80;54.70;;;;;;4989481;28;20081;-80
2024/01/16 09:02:03;;;;;;;7.82;4.78;;;1.80;54.70;;;;;;4975953;28;20045;-84
2024/01/16 09:04:29;;;;;;;8.80;5.07;;;1.80;54.80;;;;;;4971077;28;20393;-83
2024/01/16 09:06:55;;;;;;;8.18;4.93;;;1.90;55.30;;;;;;4978454;28;20298;-83
2024/01/16 09:09:21;;;;;;;6.63;5.43;;;1.90;55.40;;;;;;4977872;28;20336;-81
2024/01/16 09:11:47;;;;;;;8.07;5.68;;;2.00;55.50;;;;;;4960840;28;20543;-82
2024/01/16 09:14:14;;;;;;;7.53;5.60;;;2.10;55.70;;;;;;4976930;28;20409;-83
2024/01/16 09:16:42;;;;;;;10.48;5.60;;;2.10;55.70;;;;;;4989748;28;20041;-83
2024/01/16 09:19:09;;;;;;;6.57;5.75;;;2.10;55.60;;;;;;4972086;28;20082;-83
2024/01/16 09:21:35;;;;;;;9.00;5.68;;;2.10;55.50;;;;;;4978841;28;20035;-83
2024/01/16 09:24:01;;;;;;;6.88;5.18;;;2.10;55.50;;;;;;4977184;28;20029;-84
2024/01/16 09:26:27;;;;;;;6.78;5.03;;;2.20;55.70;;;;;;4975002;28;20125;-85
2024/01/16 09:28:54;;;;;;;7.25;5.35;;;2.10;55.50;;;;;;4978240;28;20093;-83
2024/01/16 09:31:20;;;;;;;6.65;5.28;;;2.10;55.50;;;;;;4971559;28;20053;-83
2024/01/16 09:33:46;;;;;;;5.90;5.05;;;2.10;55.40;;;;;;4976221;28;20042;-85
2024/01/16 09:36:12;;;;;;;5.15;4.43;;;2.10;55.50;;;;;;4979518;28;20042;-84
2024/01/16 09:38:38;;;;;;;7.50;5.18;;;2.10;55.50;;;;;;4976492;28;20067;-84
2024/01/16 09:41:05;;;;;;;5.47;4.78;;;2.10;55.40;;;;;;4976780;28;20037;-84
2024/01/16 09:43:36;;;;;;;7.20;5.35;;;2.10;55.40;;;;;;5001290;28;20456;-85
2024/01/16 09:46:05;;;;;;;6.97;4.75;;;2.10;55.40;;;;;;4971101;28;20563;-79
2024/01/16 09:48:31;;;;;;;7.47;5.25;;;2.10;55.40;;;;;;4990527;28;20030;-84
2024/01/16 09:50:58;;;;;;;6.75;4.47;;;2.10;55.40;;;;;;4973891;28;20504;-83
2024/01/16 09:53:24;;;;;;;6.90;5.78;;;2.10;55.40;;;;;;4971638;28;20231;-81
2024/01/16 09:55:57;;;;;;;6.60;5.10;;;2.10;55.40;;;;;;4980572;28;20416;-81
2024/01/16 09:58:24;;;;;;;10.05;4.00;;;2.10;55.40;;;;;;4986177;28;20030;-80
2024/01/16 10:00:51;;;;;;;5.47;4.68;;;2.10;55.40;;;;;;4983443;28;20038;-81
2024/01/16 10:03:19;;;;;;;5.80;4.65;;;2.10;55.70;;;;;;4982089;28;20516;-81
2024/01/16 10:05:48;;;;;;;5.65;4.32;;;2.20;56.10;;;;;;4972632;28;20088;-81
2024/01/16 10:08:14;;;;;;;11.05;5.30;;;2.30;56.30;;;;;;4971747;28;20042;-81
2024/01/16 10:10:41;;;;;;;8.02;4.90;;;2.40;56.50;;;;;;4972879;28;20253;-82
2024/01/16 10:13:07;;;;;;;7.82;4.82;;;2.50;56.70;;;;;;4982360;28;20038;-82
2024/01/16 10:15:37;;;;;;;6.82;5.15;;;2.60;56.80;;;;;;4968505;28;20047;-81
2024/01/16 10:18:03;;;;;;;5.65;4.30;;;2.70;57.00;;;;;;4971955;28;20046;-82
2024/01/16 10:20:34;;;;;;;7.78;5.30;;;2.70;57.00;;;;;;4974061;28;20034;-82
2024/01/16 10:23:03;;;;;;;6.72;4.30;;;2.80;57.20;;;;;;4969028;28;20132;-81
2024/01/16 10:25:29;;;;;;;7.15;4.82;;;2.90;57.90;;;;;;4968725;28;20441;-81
2024/01/16 10:28:08;;;;;;;8.82;4.63;;;3.00;57.50;;;;;;4976382;28;20105;-82
2024/01/16 10:30:34;;;;;;;6.95;4.40;;;3.10;57.80;;;;;;4971541;28;20049;-81
2024/01/16 10:33:14;;;;;;;7.32;4.57;;;3.20;57.80;;;;;;4966791;28;20026;-82
2024/01/16 10:35:41;;;;;;;4.75;3.70;;;3.30;58.10;;;;;;4969649;28;20057;-88
2024/01/16 10:38:07;;;;;;;7.75;3.60;;;3.30;57.90;;;;;;4980163;28;20425;-90
2024/01/16 10:40:34;;;;;;;6.70;3.85;;;3.50;58.60;;;;;;4977653;28;20089;-90
2024/01/16 10:43:03;;;;;;;4.85;4.13;;;3.70;59.40;;;;;;4994313;28;20029;-92
2024/01/16 10:45:29;;;;;;;5.80;4.22;;;4.10;60.10;;;;;;4992463;28;20457;-90
2024/01/16 10:48:02;;;;;;;3.47;2.80;;;4.60;60.50;;;;;;4975489;28;20061;-90
2024/01/16 10:50:30;;;;;;;4.43;3.03;;;5.10;60.90;;;;;;4974907;28;20085;-90
2024/01/16 10:53:00;;;;;;;5.20;2.65;;;5.60;60.70;;;;;;4982811;28;20543;-92
2024/01/16 10:55:28;;;;;;;3.08;2.65;;;6.20;60.80;;;;;;4974899;28;20096;-88
2024/01/16 10:57:56;;;;;;;5.60;3.25;;;6.60;60.60;;;;;;4974686;28;20085;-91
2024/01/16 11:00:24;;;;;;;5.97;2.50;;;7.10;60.50;;;;;;4973813;28;20083;-90
2024/01/16 11:03:00;;;;;;;6.10;2.80;;;7.40;60.30;;;;;;4979418;28;20125;-88
2024/01/16 11:05:31;;;;;;;4.22;2.67;;;7.80;60.30;;;;;;4978310;28;20027;-84
2024/01/16 11:08:03;;;;;;;4.63;2.55;;;8.10;60.10;;;;;;4973147;28;20042;-87
2024/01/16 11:10:31;;;;;;;6.20;2.30;;;8.40;60.10;;;;;;4960855;28;20050;-88
2024/01/16 11:13:00;;;;;;;4.03;2.33;;;8.70;60.10;;;;;;4969559;28;20276;-88
2024/01/16 11:15:28;;;;;;;3.17;2.45;;;8.90;60.00;;;;;;4992770;28;20072;-89
2024/01/16 11:17:59;;;;;;;3.88;2.17;;;9.10;60.00;;;;;;4980668;28;20054;-89
2024/01/16 11:20:27;;;;;;;6.13;1.90;;;9.30;60.00;;;;;;4986478;28;20045;-88
2024/01/16 11:22:59;;;;;;;2.83;1.77;;;9.50;59.90;;;;;;4984471;28;20069;-88
2024/01/16 11:25:33;;;;;;;3.13;1.90;;;9.70;59.80;;;;;;4987322;28;20120;-89
2024/01/16 11:28:15;;;;;;;3.75;2.20;;;10.00;60.00;;;;;;4979221;28;20606;-88
2024/01/16 11:30:45;;;;;;;4.65;1.90;;;10.20;59.80;;;;;;4979121;28;20117;-89
2024/01/16 11:33:31;;;;;;;2.42;1.63;;;10.40;59.70;;;;;;5014460;28;20030;-87
2024/01/16 11:35:57;;;;;;;2.45;1.73;;;10.60;59.50;;;;;;5018358;28;20076;-87
2024/01/16 11:38:26;;;;;;;2.55;1.52;;;10.80;59.50;;;;;;5014700;28;20030;-87
2024/01/16 11:40:56;;;;;;;1.50;1.40;;;11.00;59.40;;;;;;5000210;28;20267;-88
2024/01/16 11:43:36;;;;;;;3.17;1.55;;;11.10;59.20;;;;;;5002704;28;20022;-89
2024/01/16 11:46:10;;;;;;;4.78;1.45;;;11.30;59.20;;;;;;4997905;28;20038;-88
2024/01/16 11:48:38;;;;;;;2.22;2.03;;;11.40;58.90;;;;;;4977228;28;20129;-89
2024/01/16 11:51:25;;;;;;;2.35;1.10;;;11.60;58.90;;;;;;4975502;28;20121;-87
2024/01/16 11:53:51;;;;;;;1.83;1.25;;;11.70;58.60;;;;;;4975415;28;20073;-87
2024/01/16 11:56:36;;;;;;;2.63;1.55;;;11.90;58.70;;;;;;4978285;28;20121;-87
2024/01/16 11:59:08;;;;;;;3.33;2.00;;;11.90;58.30;;;;;;4976641;28;20042;-88
2024/01/16 12:01:36;;;;;;;2.42;1.13;;;12.10;58.30;;;;;;4976191;28;20138;-87
2024/01/16 12:04:09;;;;;;;4.03;1.17;;;12.20;58.20;;;;;;4976405;28;20031;-87
2024/01/16 12:06:37;;;;;;;2.63;0.90;;;12.30;57.90;;;;;;4967713;28;20058;-88
2024/01/16 12:09:20;;;;;;;2.38;1.20;;;12.40;57.80;;;;;;4974515;28;20066;-87
2024/01/16 12:12:01;;;;;;;2.85;1.13;;;12.50;57.40;;;;;;4968097;28;20034;-84
2024/01/16 12:14:28;;;;;;;2.05;1.10;;;12.60;57.30;;;;;;4974111;28;20049;-84
2024/01/16 12:17:15;;;;;;;2.00;1.10;;;12.70;57.30;;;;;;4977531;28;20060;-85
2024/01/16 12:19:43;;;;;;;3.58;1.25;;;12.80;56.90;;;;;;4963272;28;20243;-85
2024/01/16 12:22:09;;;;;;;2.63;1.73;;;12.90;56.90;;;;;;4986606;28;20042;-85
2024/01/16 12:24:37;;;;;;;1.92;1.13;;;13.00;57.20;;;;;;4976851;28;20041;-85
2024/01/16 12:27:04;;;;;;;2.75;1.30;;;13.00;56.30;;;;;;4978646;28;20034;-84
2024/01/16 12:29:31;;;;;;;1.35;0.93;;;13.10;56.20;;;;;;4954509;28;20132;-83
2024/01/16 12:32:07;;;;;;;1.90;1.05;;;13.20;56.00;;;;;;4962352;28;20066;-84
2024/01/16 12:34:35;;;;;;;2.45;1.20;;;13.20;55.40;;;;;;4970519;28;20050;-83
2024/01/16 12:37:07;;;;;;;2.33;1.05;;;13.30;55.50;;;;;;4972767;28;20050;-83
2024/01/16 12:39:35;;;;;;;2.00;0.95;;;13.40;55.30;;;;;;4974539;28;20049;-87
2024/01/16 12:42:01;;;;;;;2.38;1.00;;;13.40;55.10;;;;;;4970992;28;20633;-88
2024/01/16 12:44:29;;;;;;;1.02;0.80;;;13.50;55.00;;;;;;4973033;28;20089;-91
2024/01/16 12:46:56;;;;;;;1.38;1.00;;;13.60;54.90;;;;;;4974715;28;20061;-82
2024/01/16 12:49:23;;;;;;;1.77;1.20;;;13.60;54.60;;;;;;4995493;28;20030;-77
2024/01/16 12:51:49;;;;;;;1.88;1.13;;;13.70;54.40;;;;;;4985779;28;20035;-86
2024/01/16 12:54:18;;;;;;;1.25;0.80;;;13.70;54.00;;;;;;4975020;28;20347;-78
2024/01/16 12:56:44;;;;;;;2.20;1.20;;;13.60;53.40;;;;;;4973983;28;20030;-79